Terminal Aerodrome Forecast
Issued by NWS Jackson, KY

Home | Current Version | Previous Version | Text Only | Print | Product List | Glossary On
Versions: 1 2 3 4 5 6 7 8 9 10 11 12 13 14 15 16 17
000
FTUS43 KJKL 262134 AAA
TAFJKL
TAF AMD
KJKL 262134Z 2622/2718 33006KT P6SM SCT025 BKN100
     FM262230 33008KT P6SM VCSH BKN025 OVC040
     FM262300 35007KT 4SM -SN BR BKN010 OVC020
     FM270600 35006KT P6SM VCSH BKN015 OVC025
     FM271400 36005KT P6SM SCT015 BKN030=

USA.gov is the U.S. government's official web portal to all federal, state and local government web resources and services.